Accueil
METAR-TAF:

METAR-TAF

Aéroports :

Celle, Allemagne

latitude: 52-36N, longitude: 010-01E, altitude: 39 m

Observation

Le bulletin a été fait il y a 20 minutes, à 15:20 UTC
Vent 6 kt de sud-ouest
Température 27°C
Humidité 24%
Pression 1014 hPa
Visibilité 10 km ou plus
Quelques nuages à une hauteur de 7000 ft
Nuages fragmentés à une hauteur de 26000 ft

METAR: ETHC 021520Z 23006KT 9999 FEW070 BKN260 27/05 Q1014 BLU+FCST CNL

Heure: 17:40 (15:40 UTC)

Prévision

Le bulletin a été fait il y a 2 heures et 37 minutes, à 13:03 UTC
Prévision valable du 02 à 14 UTC au 02 à 23 UTC
Vent 6 kt de est/sud-est
Visibilité 10 km ou plus
Nuages fragmentés à une hauteur de 24000 ft

TAF: ETHC 021303Z 0214/0223 12006KT 9999 NSW BKN240

Observations et prévisions météorologiques de plus de 4000 aéroports (messages METAR et TAF).

Les stations disponibles sont représentées par des disques jaunes et rouges sur la carte.

Passer la souris dessus pour voir le nom de la station.

Cliquer dessus pour voir les observations et prévisions météorologiques.

Pour changer de carte: cliquez sur les boutons verts avec une croix noire pour zoomer, sur le bouton vert avec un tiret pour effectuer un zoom arrière, ou sur les flèches vertes pour les cartes adjacentes.


METAR-TAF: